createdAt,value
2022-08-16T00:02:29.974Z,2.75
2022-08-16T00:17:21.055Z,3.34
2022-08-16T00:32:13.243Z,3.72
2022-08-16T00:47:06.169Z,3.98
2022-08-16T01:01:58.039Z,3.93
2022-08-16T01:16:49.305Z,4.37
2022-08-16T01:31:42.838Z,4.74
2022-08-16T01:46:39.956Z,4.65
2022-08-16T02:01:26.194Z,5.14
2022-08-16T02:16:18.726Z,4.44
2022-08-16T02:31:09.210Z,4.34
2022-08-16T02:46:00.932Z,5.02
2022-08-16T03:00:53.268Z,5.20
2022-08-16T03:15:46.388Z,5.17
2022-08-16T03:30:37.959Z,5.04
2022-08-16T03:45:31.880Z,4.52
2022-08-16T04:00:41.158Z,4.50
2022-08-16T04:15:17.052Z,4.36
2022-08-16T04:30:10.998Z,5.03
2022-08-16T04:45:01.964Z,4.79
2022-08-16T05:15:01.790Z,5.04
2022-08-16T05:29:59.971Z,5.36
2022-08-16T05:44:32.614Z,5.53
2022-08-16T05:59:26.831Z,6.36
2022-08-16T06:14:17.840Z,5.94
2022-08-16T06:29:10.159Z,7.61
2022-08-16T06:44:02.482Z,6.55
2022-08-16T06:58:54.943Z,6.53
2022-08-16T07:14:00.727Z,6.93
2022-08-16T07:28:40.669Z,5.47
2022-08-16T07:43:34.294Z,6.15
2022-08-16T07:58:35.099Z,5.50
2022-08-16T08:13:19.898Z,5.11
2022-08-16T08:28:11.865Z,5.44
2022-08-16T08:43:12.071Z,6.07
2022-08-16T08:57:57.552Z,6.19
2022-08-16T09:12:50.566Z,6.65
2022-08-16T09:27:47.001Z,6.70
2022-08-16T09:42:55.923Z,6.26
2022-08-16T09:57:27.649Z,5.90
2022-08-16T10:12:42.582Z,5.91
2022-08-16T10:27:46.200Z,5.00
2022-08-16T10:42:29.433Z,5.11
2022-08-16T10:57:24.598Z,4.37
2022-08-16T11:12:15.086Z,4.90
2022-08-16T11:27:32.539Z,4.39
2022-08-16T12:44:31.556Z,3.82
2022-08-16T12:59:24.531Z,3.69
2022-08-16T13:14:30.861Z,4.00
2022-08-16T13:29:09.818Z,4.33
2022-08-16T13:44:04.214Z,3.70
2022-08-16T13:58:58.360Z,3.51
2022-08-16T14:13:52.027Z,3.34
2022-08-16T14:28:45.179Z,2.98
2022-08-16T14:43:36.806Z,3.10
2022-08-16T14:58:36.679Z,3.19
2022-08-16T15:13:25.789Z,2.78
2022-08-16T15:28:30.617Z,2.98
2022-08-16T15:43:14.415Z,3.10
2022-08-16T15:58:35.768Z,3.11
2022-08-16T16:12:56.299Z,3.14
2022-08-16T16:27:55.383Z,3.24
2022-08-16T16:42:44.440Z,3.30
2022-08-16T16:57:59.481Z,3.53
2022-08-16T17:12:52.020Z,3.64
2022-08-16T17:27:44.287Z,4.19
2022-08-16T17:42:36.993Z,4.24
2022-08-16T17:57:29.659Z,4.34
2022-08-16T18:12:55.495Z,3.93
2022-08-16T18:27:25.402Z,4.19
2022-08-16T18:42:12.546Z,4.50
2022-08-16T18:57:08.285Z,4.13
2022-08-16T19:11:58.796Z,4.76
